Time;durP1;ratioP1;P1;durP2;ratioP2;P2;SDS_P1;SDS_P2;PMS_P1;PMS_P2;Temp;Humidity;BMP_temperature;BMP_pressure;BME280_temperature;BME280_humidity;BME280_pressure;Samples;Min_cycle;Max_cycle;Signal;HPM_P1;HPM_P2
2023/10/03 00:00:31;;;;;;;49.30;19.67;;;;;;;;;;5052687;28;20107;-69
2023/10/03 00:03:00;;;;;;;53.30;18.30;;;;;;;;;;5018463;28;20028;-69
2023/10/03 00:05:31;;;;;;;49.53;20.52;;;;;;;;;;5035622;28;20021;-69
2023/10/03 00:07:57;;;;;;;;;;;;;;;;;;5053293;28;20013;-69
2023/10/03 00:10:23;;;;;;;50.65;18.50;;;;;;;;;;5044226;28;20367;-69
2023/10/03 00:12:51;;;;;;;45.70;18.30;;;;;;;;;;5047447;28;20023;-69
2023/10/03 00:15:17;;;;;;;46.60;17.20;;;;;;;;;;5033710;28;20021;-69
2023/10/03 00:17:43;;;;;;;42.75;20.15;;;;;;;;;;5015379;28;20032;-69
2023/10/03 00:20:11;;;;;;;40.85;16.25;;;;;;;;;;5015352;28;20025;-69
2023/10/03 00:22:38;;;;;;;43.03;17.10;;;;;;;;;;5038056;28;20025;-69
2023/10/03 00:25:05;;;;;;;27.98;12.30;;;;;;;;;;5045683;28;20029;-69
2023/10/03 00:27:32;;;;;;;28.58;12.15;;;;;;;;;;5015704;28;20030;-69
2023/10/03 00:29:58;;;;;;;23.48;10.25;;;;;;;;;;5052701;28;20025;-69
2023/10/03 00:32:23;;;;;;;29.42;13.80;;;;;;;;;;5052605;28;20082;-69
2023/10/03 00:34:49;;;;;;;36.08;14.15;;;;;;;;;;5052783;28;20028;-69
2023/10/03 00:37:14;;;;;;;42.95;17.77;;;;;;;;;;5052059;28;20037;-69
2023/10/03 00:39:41;;;;;;;29.02;12.65;;;;;;;;;;5052914;28;20028;-69
2023/10/03 00:42:09;;;;;;;49.67;20.45;;;;;;;;;;5052972;28;20104;-69
2023/10/03 00:44:34;;;;;;;48.17;20.88;;;;;;;;;;5052978;28;20025;-69
2023/10/03 00:46:59;;;;;;;54.47;20.33;;;;;;;;;;5052981;28;20033;-69
2023/10/03 00:49:28;;;;;;;58.22;22.33;;;;;;;;;;5034447;28;20036;-69
2023/10/03 00:51:56;;;;;;;53.33;19.48;;;;;;;;;;5035425;28;20074;-69
2023/10/03 00:54:21;;;;;;;59.00;21.98;;;;;;;;;;5035311;28;20029;-69
2023/10/03 00:56:47;;;;;;;52.47;20.77;;;;;;;;;;5052871;28;20152;-69
2023/10/03 00:59:13;;;;;;;52.20;21.85;;;;;;;;;;5052623;28;20058;-69
2023/10/03 01:02:24;;;;;;;43.22;16.23;;;;;;;;;;5052110;28;20028;-69
2023/10/03 01:04:49;;;;;;;45.13;19.38;;;;;;;;;;5052439;28;20403;-69
2023/10/03 01:07:14;;;;;;;58.88;21.73;;;;;;;;;;5052805;28;20020;-69
2023/10/03 01:09:40;;;;;;;61.13;23.17;;;;;;;;;;5051853;28;20111;-69
2023/10/03 01:12:06;;;;;;;58.55;23.25;;;;;;;;;;5053445;28;20016;-69
2023/10/03 01:14:34;;;;;;;48.15;20.45;;;;;;;;;;5056226;28;20549;-69
2023/10/03 01:17:01;;;;;;;54.47;21.83;;;;;;;;;;5056774;28;20063;-69
2023/10/03 01:19:30;;;;;;;54.20;21.20;;;;;;;;;;5056115;28;20493;-69
2023/10/03 01:21:56;;;;;;;55.72;21.98;;;;;;;;;;5055781;28;20041;-69
2023/10/03 01:24:25;;;;;;;52.95;21.35;;;;;;;;;;5056364;28;20091;-69
2023/10/03 01:26:52;;;;;;;60.17;23.63;;;;;;;;;;5056060;28;20486;-69
2023/10/03 01:29:18;;;;;;;59.88;21.92;;;;;;;;;;5055978;28;20043;-69
2023/10/03 01:31:43;;;;;;;53.22;21.55;;;;;;;;;;5039103;28;20025;-69
2023/10/03 01:34:09;;;;;;;59.13;22.63;;;;;;;;;;5055889;28;20025;-69
2023/10/03 01:36:34;;;;;;;63.05;23.98;;;;;;;;;;5055487;28;20021;-69
2023/10/03 01:38:59;;;;;;;56.75;22.50;;;;;;;;;;5055856;28;20021;-69
2023/10/03 01:41:25;;;;;;;50.08;20.25;;;;;;;;;;5055705;28;20104;-69
2023/10/03 01:43:50;;;;;;;66.40;24.25;;;;;;;;;;5056283;28;20028;-69
2023/10/03 01:46:17;;;;;;;64.68;23.75;;;;;;;;;;5055961;28;20025;-69
2023/10/03 01:48:43;;;;;;;55.42;21.33;;;;;;;;;;5037328;28;20027;-69
2023/10/03 01:51:09;;;;;;;62.92;24.17;;;;;;;;;;5055577;28;20013;-69
2023/10/03 01:53:34;;;;;;;65.82;26.17;;;;;;;;;;5055836;28;20445;-69
2023/10/03 01:56:00;;;;;;;55.95;22.38;;;;;;;;;;5055526;28;20484;-69
2023/10/03 01:58:26;;;;;;;52.25;21.17;;;;;;;;;;5055182;28;20017;-69
2023/10/03 02:00:51;;;;;;;59.35;23.38;;;;;;;;;;5055384;28;20072;-69
2023/10/03 02:03:18;;;;;;;58.25;23.63;;;;;;;;;;5055380;28;20082;-69
2023/10/03 02:05:44;;;;;;;65.90;26.92;;;;;;;;;;5033190;28;20021;-69
2023/10/03 02:08:15;;;;;;;65.05;25.35;;;;;;;;;;5053848;28;20029;-69
2023/10/03 02:10:41;;;;;;;66.38;25.70;;;;;;;;;;5106733;22;20044;-69
2023/10/03 02:13:12;;;;;;;73.35;28.27;;;;;;;;;;5039648;28;20509;-69
2023/10/03 02:15:38;;;;;;;62.88;24.85;;;;;;;;;;5034711;28;20025;-69
2023/10/03 02:18:05;;;;;;;80.68;26.23;;;;;;;;;;5040228;28;20483;-69
2023/10/03 02:20:30;;;;;;;74.43;28.15;;;;;;;;;;5045728;28;20031;-68
2023/10/03 02:22:56;;;;;;;65.10;22.98;;;;;;;;;;5074323;28;20020;-69
2023/10/03 02:25:27;;;;;;;71.63;24.92;;;;;;;;;;5075429;28;20479;-69
2023/10/03 02:27:53;;;;;;;63.25;23.48;;;;;;;;;;5075711;28;20393;-69
2023/10/03 02:30:25;;;;;;;60.58;23.27;;;;;;;;;;5041201;28;20032;-69
2023/10/03 02:32:56;;;;;;;60.17;21.90;;;;;;;;;;5062206;28;20393;-69
2023/10/03 02:35:24;;;;;;;57.30;25.40;;;;;;;;;;5050287;28;20028;-69
2023/10/03 02:37:57;;;;;;;61.80;22.92;;;;;;;;;;5074167;28;20386;-69
2023/10/03 02:40:26;;;;;;;62.00;25.52;;;;;;;;;;5041201;28;20057;-69
2023/10/03 02:42:51;;;;;;;68.60;24.92;;;;;;;;;;5033253;28;20021;-69
2023/10/03 02:45:22;;;;;;;66.43;26.25;;;;;;;;;;5034705;28;20067;-69
2023/10/03 02:47:48;;;;;;;72.18;26.92;;;;;;;;;;5038502;28;20039;-69
2023/10/03 02:50:14;;;;;;;59.80;21.58;;;;;;;;;;5021446;28;20013;-69
2023/10/03 02:52:40;;;;;;;64.20;23.67;;;;;;;;;;5034581;28;20553;-69
2023/10/03 02:55:08;;;;;;;61.85;23.42;;;;;;;;;;5033489;28;20029;-69
2023/10/03 02:57:35;;;;;;;68.28;24.42;;;;;;;;;;5033708;28;20082;-69
2023/10/03 03:00:03;;;;;;;70.47;26.85;;;;;;;;;;5074056;28;20036;-69
2023/10/03 03:02:29;;;;;;;68.70;28.92;;;;;;;;;;5073759;28;20052;-69
2023/10/03 03:04:55;;;;;;;71.15;27.42;;;;;;;;;;5073881;28;20024;-69
2023/10/03 03:07:20;;;;;;;75.00;28.38;;;;;;;;;;5038660;28;20390;-69
2023/10/03 03:09:45;;;;;;;74.95;29.52;;;;;;;;;;5040507;28;20033;-69
2023/10/03 03:12:13;;;;;;;75.65;27.75;;;;;;;;;;5033701;28;20025;-69
2023/10/03 03:14:39;;;;;;;70.32;29.00;;;;;;;;;;5020622;28;20025;-69
2023/10/03 03:17:13;;;;;;;77.47;28.27;;;;;;;;;;5054553;28;20394;-69
2023/10/03 03:19:39;;;;;;;78.35;29.38;;;;;;;;;;5073533;28;20048;-69
2023/10/03 03:22:05;;;;;;;75.70;29.70;;;;;;;;;;5072732;28;20055;-69
2023/10/03 03:24:33;;;;;;;84.28;30.88;;;;;;;;;;5073450;28;20032;-69
2023/10/03 03:26:59;;;;;;;81.57;31.27;;;;;;;;;;5073740;28;20170;-69
2023/10/03 03:29:35;;;;;;;86.22;30.25;;;;;;;;;;5055830;28;20484;-69
2023/10/03 03:32:01;;;;;;;83.93;28.55;;;;;;;;;;5056663;28;20028;-69
2023/10/03 03:34:26;;;;;;;80.07;31.83;;;;;;;;;;5072343;28;20031;-69
2023/10/03 03:36:55;;;;;;;88.65;31.23;;;;;;;;;;5073113;28;20028;-69
2023/10/03 03:39:20;;;;;;;88.63;32.30;;;;;;;;;;5073415;28;20025;-69
2023/10/03 03:41:46;;;;;;;83.72;30.88;;;;;;;;;;5073309;28;20024;-69
2023/10/03 03:44:12;;;;;;;79.80;32.33;;;;;;;;;;5073238;28;20025;-69
2023/10/03 03:46:40;;;;;;;88.72;31.73;;;;;;;;;;5073219;28;20016;-69
2023/10/03 03:49:06;;;;;;;79.25;29.23;;;;;;;;;;5072721;28;20490;-69
2023/10/03 03:51:31;;;;;;;90.40;33.13;;;;;;;;;;5038674;28;20031;-69
2023/10/03 03:53:59;;;;;;;78.82;30.10;;;;;;;;;;5055135;28;20028;-69
2023/10/03 03:56:24;;;;;;;90.28;31.55;;;;;;;;;;5055299;28;20108;-69
2023/10/03 03:58:50;;;;;;;77.38;27.60;;;;;;;;;;5072937;28;20103;-69
2023/10/03 04:01:19;;;;;;;72.00;28.83;;;;;;;;;;5072072;28;20107;-69
2023/10/03 04:03:51;;;;;;;71.30;29.00;;;;;;;;;;5038909;28;20024;-69
2023/10/03 04:06:17;;;;;;;82.00;32.30;;;;;;;;;;5055716;28;20020;-69
2023/10/03 04:08:42;;;;;;;78.63;30.67;;;;;;;;;;5054861;28;20024;-69
2023/10/03 04:11:08;;;;;;;74.75;27.67;;;;;;;;;;5072877;28;20111;-69
2023/10/03 04:13:49;;;;;;;79.13;31.10;;;;;;;;;;5055076;28;20021;-69
2023/10/03 04:16:20;;;;;;;83.45;29.75;;;;;;;;;;5072480;28;20085;-69
2023/10/03 04:18:49;;;;;;;71.82;29.48;;;;;;;;;;5062014;28;20048;-69
2023/10/03 04:21:14;;;;;;;74.13;29.45;;;;;;;;;;5018735;28;20021;-68
2023/10/03 04:23:40;;;;;;;82.70;30.60;;;;;;;;;;5058345;28;20017;-69
2023/10/03 04:26:07;;;;;;;72.65;27.55;;;;;;;;;;5040588;28;20029;-69
2023/10/03 04:28:33;;;;;;;73.60;28.08;;;;;;;;;;5026946;28;20029;-69
2023/10/03 04:30:58;;;;;;;78.32;29.52;;;;;;;;;;5032443;28;20044;-69
2023/10/03 04:33:24;;;;;;;74.30;28.23;;;;;;;;;;5048478;28;20029;-69
2023/10/03 04:35:50;;;;;;;76.05;30.10;;;;;;;;;;5051143;28;20074;-69
2023/10/03 04:38:16;;;;;;;67.63;30.67;;;;;;;;;;5031553;28;20053;-69
2023/10/03 04:40:42;;;;;;;70.13;26.33;;;;;;;;;;5040132;28;20402;-69
2023/10/03 04:43:14;;;;;;;78.72;29.77;;;;;;;;;;5034497;28;20104;-68
2023/10/03 04:45:40;;;;;;;70.32;29.65;;;;;;;;;;5041831;28;20029;-69
2023/10/03 04:48:06;;;;;;;74.00;29.15;;;;;;;;;;5058760;28;20021;-69
2023/10/03 04:50:32;;;;;;;78.95;29.52;;;;;;;;;;5065741;28;20095;-69
2023/10/03 04:52:59;;;;;;;72.13;28.85;;;;;;;;;;5054827;28;20027;-69
2023/10/03 04:55:24;;;;;;;66.05;26.77;;;;;;;;;;5056288;28;20075;-69
2023/10/03 04:57:51;;;;;;;69.30;27.33;;;;;;;;;;5038729;28;20017;-69
2023/10/03 05:00:21;;;;;;;77.85;28.42;;;;;;;;;;5038203;28;20029;-69
2023/10/03 05:02:50;;;;;;;74.00;28.02;;;;;;;;;;5038571;28;20021;-69
2023/10/03 05:05:21;;;;;;;68.05;26.92;;;;;;;;;;5059938;28;20020;-68
2023/10/03 05:07:53;;;;;;;64.75;25.67;;;;;;;;;;5076028;28;20070;-69
2023/10/03 05:10:20;;;;;;;62.67;25.52;;;;;;;;;;5041697;28;20025;-69
2023/10/03 05:12:50;;;;;;;68.28;27.30;;;;;;;;;;5056081;28;20074;-69
2023/10/03 05:15:16;;;;;;;67.55;26.45;;;;;;;;;;5061710;28;20414;-69
2023/10/03 05:17:45;;;;;;;56.60;24.15;;;;;;;;;;5075703;28;20032;-69
2023/10/03 05:20:17;;;;;;;67.88;26.40;;;;;;;;;;5076259;28;20021;-69
2023/10/03 05:22:42;;;;;;;61.90;24.58;;;;;;;;;;5041090;28;20048;-69
2023/10/03 05:25:11;;;;;;;59.20;22.02;;;;;;;;;;5045952;28;20482;-69
2023/10/03 05:27:43;;;;;;;64.43;23.10;;;;;;;;;;5075491;28;20040;-69
2023/10/03 05:30:09;;;;;;;59.40;23.15;;;;;;;;;;5075954;28;20017;-69
2023/10/03 05:32:36;;;;;;;57.50;21.92;;;;;;;;;;5053431;28;20039;-69
2023/10/03 05:35:02;;;;;;;55.85;21.38;;;;;;;;;;5040149;28;20086;-68
2023/10/03 05:37:27;;;;;;;55.40;20.65;;;;;;;;;;5046572;28;20535;-69
2023/10/03 05:39:53;;;;;;;53.35;20.23;;;;;;;;;;5027578;28;20080;-69
2023/10/03 05:42:19;;;;;;;49.85;19.55;;;;;;;;;;5056230;28;20059;-69
2023/10/03 05:44:45;;;;;;;51.53;21.15;;;;;;;;;;5055784;28;20506;-69
2023/10/03 05:47:11;;;;;;;44.67;19.23;;;;;;;;;;5073962;28;20036;-69
2023/10/03 05:49:36;;;;;;;52.20;19.70;;;;;;;;;;5057219;28;20023;-69
2023/10/03 05:52:02;;;;;;;48.00;22.52;;;;;;;;;;5056416;28;20017;-69
2023/10/03 05:54:30;;;;;;;55.08;20.90;;;;;;;;;;5056070;28;20437;-69
2023/10/03 05:56:55;;;;;;;50.03;21.13;;;;;;;;;;5038967;28;20033;-69
2023/10/03 05:59:21;;;;;;;52.83;18.83;;;;;;;;;;5034092;28;20033;-69
2023/10/03 06:01:47;;;;;;;46.13;18.58;;;;;;;;;;5062029;28;20483;-69
2023/10/03 06:04:13;;;;;;;39.15;16.73;;;;;;;;;;5037020;28;20032;-69
2023/10/03 06:06:38;;;;;;;42.35;17.10;;;;;;;;;;5063363;28;20386;-69
2023/10/03 06:09:04;;;;;;;42.97;15.80;;;;;;;;;;5074444;28;20390;-69
2023/10/03 06:11:33;;;;;;;51.80;18.42;;;;;;;;;;5074466;28;20035;-68
2023/10/03 06:13:58;;;;;;;45.72;16.40;;;;;;;;;;5035057;28;20519;-69
2023/10/03 06:16:24;;;;;;;37.70;16.92;;;;;;;;;;5034314;28;20033;-68
2023/10/03 06:18:51;;;;;;;37.90;15.18;;;;;;;;;;5047815;28;20032;-69
2023/10/03 06:21:16;;;;;;;34.63;13.45;;;;;;;;;;5037805;28;20097;-69
2023/10/03 06:23:42;;;;;;;40.58;15.15;;;;;;;;;;5053768;28;20021;-68
2023/10/03 06:26:07;;;;;;;37.97;14.48;;;;;;;;;;5039388;28;20398;-69
2023/10/03 06:28:32;;;;;;;34.85;13.38;;;;;;;;;;5038760;28;21016;-68
2023/10/03 06:30:58;;;;;;;32.65;13.57;;;;;;;;;;5038703;28;20048;-68
2023/10/03 06:33:23;;;;;;;32.55;12.93;;;;;;;;;;5044615;28;20025;-69
2023/10/03 06:35:50;;;;;;;35.15;14.60;;;;;;;;;;5054019;28;20078;-68
2023/10/03 06:38:16;;;;;;;39.80;14.93;;;;;;;;;;5053013;28;20035;-68
2023/10/03 06:40:42;;;;;;;32.60;12.10;;;;;;;;;;5051760;28;20025;-68
2023/10/03 06:43:07;;;;;;;31.83;13.77;;;;;;;;;;5062413;28;20424;-68
2023/10/03 06:45:33;;;;;;;33.40;12.57;;;;;;;;;;5048689;28;20107;-69
2023/10/03 06:48:03;;;;;;;28.20;12.88;;;;;;;;;;5045396;28;20396;-69
2023/10/03 06:50:29;;;;;;;38.83;13.98;;;;;;;;;;5036734;28;20021;-69
2023/10/03 06:52:55;;;;;;;31.02;11.93;;;;;;;;;;5028335;28;20017;-69
2023/10/03 06:55:20;;;;;;;36.42;13.32;;;;;;;;;;5033706;28;20091;-68
2023/10/03 06:57:45;;;;;;;32.85;12.15;;;;;;;;;;5052435;28;20029;-68
2023/10/03 07:00:13;;;;;;;34.45;13.85;;;;;;;;;;5053912;28;20025;-69
2023/10/03 07:02:39;;;;;;;36.88;11.93;;;;;;;;;;5032542;28;20080;-69
2023/10/03 07:05:05;;;;;;;33.28;12.70;;;;;;;;;;5052148;28;20057;-69
2023/10/03 07:07:30;;;;;;;49.83;14.20;;;;;;;;;;5052866;28;20451;-69
2023/10/03 07:09:55;;;;;;;35.97;12.68;;;;;;;;;;5046388;28;20480;-69
2023/10/03 07:12:22;;;;;;;37.60;13.90;;;;;;;;;;5033722;28;20029;-69
2023/10/03 07:14:48;;;;;;;31.73;14.32;;;;;;;;;;5034090;28;20065;-69
2023/10/03 07:17:14;;;;;;;32.30;12.05;;;;;;;;;;5032405;28;20029;-69
2023/10/03 07:19:40;;;;;;;29.45;11.88;;;;;;;;;;5046132;28;20395;-70
2023/10/03 07:22:06;;;;;;;39.97;13.10;;;;;;;;;;5053277;28;20028;-69
2023/10/03 07:24:31;;;;;;;30.48;11.75;;;;;;;;;;5053195;28;20028;-69
2023/10/03 07:26:58;;;;;;;34.92;13.68;;;;;;;;;;5035666;28;20487;-68
2023/10/03 07:29:23;;;;;;;31.05;12.52;;;;;;;;;;5032550;28;20106;-68
2023/10/03 07:31:48;;;;;;;36.00;12.73;;;;;;;;;;5041538;28;20058;-68
2023/10/03 07:34:17;;;;;;;30.73;11.88;;;;;;;;;;5067479;28;20422;-68
2023/10/03 07:36:43;;;;;;;32.05;12.05;;;;;;;;;;5055047;28;20027;-70
2023/10/03 07:39:08;;;;;;;34.28;14.38;;;;;;;;;;5072924;28;20099;-71
2023/10/03 07:41:34;;;;;;;36.08;12.70;;;;;;;;;;5072813;28;20478;-70
2023/10/03 07:44:00;;;;;;;36.40;13.70;;;;;;;;;;5072872;28;20035;-70
2023/10/03 07:46:25;;;;;;;33.65;14.80;;;;;;;;;;5044947;28;20021;-69
2023/10/03 07:48:52;;;;;;;42.30;15.13;;;;;;;;;;5023356;28;20026;-68
2023/10/03 07:51:19;;;;;;;35.67;14.52;;;;;;;;;;5044394;28;20111;-68
2023/10/03 07:53:46;;;;;;;38.45;13.40;;;;;;;;;;5039476;28;20033;-68
2023/10/03 07:56:33;;;;;;;38.58;13.80;;;;;;;;;;5046450;28;20049;-69
2023/10/03 07:59:01;;;;;;;38.72;13.82;;;;;;;;;;5032174;28;20029;-68
2023/10/03 08:01:27;;;;;;;46.90;15.13;;;;;;;;;;5032956;28;20449;-69
2023/10/03 08:03:57;;;;;;;42.25;15.48;;;;;;;;;;5024679;28;20017;-68
2023/10/03 08:06:23;;;;;;;43.53;14.88;;;;;;;;;;5047702;28;20021;-68
2023/10/03 08:09:00;;;;;;;46.25;15.55;;;;;;;;;;5046298;28;20033;-68
2023/10/03 08:11:30;;;;;;;37.97;14.20;;;;;;;;;;5044225;28;20020;-67
2023/10/03 08:13:56;;;;;;;52.90;16.00;;;;;;;;;;5052043;28;20438;-68
2023/10/03 08:16:22;;;;;;;47.40;14.95;;;;;;;;;;5042375;28;20107;-68
2023/10/03 08:18:57;;;;;;;46.97;15.93;;;;;;;;;;5019548;28;20479;-68
2023/10/03 08:21:23;;;;;;;38.97;13.57;;;;;;;;;;5023080;28;20394;-68
2023/10/03 08:23:51;;;;;;;46.20;16.55;;;;;;;;;;5063039;28;20489;-68
2023/10/03 08:26:16;;;;;;;51.40;18.15;;;;;;;;;;5072281;28;20061;-68
2023/10/03 08:28:42;;;;;;;51.67;17.13;;;;;;;;;;5036683;28;20388;-68
2023/10/03 08:31:08;;;;;;;58.05;16.58;;;;;;;;;;5064108;28;20497;-68
2023/10/03 08:33:36;;;;;;;57.13;18.52;;;;;;;;;;5046347;28;20525;-68
2023/10/03 08:36:14;;;;;;;47.63;17.60;;;;;;;;;;5050592;28;20029;-69
2023/10/03 08:38:43;;;;;;;54.05;16.35;;;;;;;;;;5061323;28;20036;-68
2023/10/03 08:41:11;;;;;;;45.63;15.13;;;;;;;;;;5046399;28;20478;-68
2023/10/03 08:43:38;;;;;;;45.50;16.33;;;;;;;;;;5054320;28;20150;-68
2023/10/03 08:46:09;;;;;;;49.55;17.00;;;;;;;;;;5054477;28;20405;-68
2023/10/03 08:48:36;;;;;;;41.90;16.00;;;;;;;;;;5054700;28;20024;-69
2023/10/03 08:51:02;;;;;;;49.22;20.98;;;;;;;;;;5040532;28;20040;-69
2023/10/03 08:53:27;;;;;;;52.15;16.92;;;;;;;;;;5028147;28;20025;-68
2023/10/03 08:56:02;;;;;;;46.38;17.50;;;;;;;;;;5040759;28;20024;-68
2023/10/03 08:58:28;;;;;;;50.03;16.75;;;;;;;;;;5034857;28;20512;-68
2023/10/03 09:01:03;;;;;;;54.00;17.13;;;;;;;;;;5053907;28;20052;-68
2023/10/03 09:03:46;;;;;;;42.33;14.95;;;;;;;;;;5054768;28;20032;-68
2023/10/03 09:06:19;;;;;;;47.97;16.50;;;;;;;;;;5034371;28;20051;-68
2023/10/03 09:08:44;;;;;;;39.00;14.70;;;;;;;;;;5051895;28;20028;-68
2023/10/03 09:11:13;;;;;;;53.40;17.23;;;;;;;;;;5062383;28;20039;-68
2023/10/03 09:13:39;;;;;;;46.88;14.98;;;;;;;;;;5071976;28;20365;-68
2023/10/03 09:16:08;;;;;;;44.97;15.25;;;;;;;;;;5060904;28;20116;-68
2023/10/03 09:18:41;;;;;;;49.08;16.02;;;;;;;;;;5025045;28;20127;-68
2023/10/03 09:21:23;;;;;;;38.28;16.35;;;;;;;;;;5030570;28;20104;-68
2023/10/03 09:23:59;;;;;;;43.80;15.52;;;;;;;;;;5047151;28;20453;-68
2023/10/03 09:26:25;;;;;;;46.20;16.38;;;;;;;;;;5046852;28;20025;-68
2023/10/03 09:28:51;;;;;;;49.28;14.98;;;;;;;;;;5027402;28;20102;-68
2023/10/03 09:31:22;;;;;;;47.42;16.85;;;;;;;;;;5046184;28;20025;-69
2023/10/03 09:33:47;;;;;;;39.92;13.55;;;;;;;;;;5023826;28;20026;-68
2023/10/03 09:36:12;;;;;;;45.92;16.23;;;;;;;;;;5044944;28;20457;-68
2023/10/03 09:38:42;;;;;;;43.70;15.50;;;;;;;;;;5062335;28;20043;-67
2023/10/03 09:41:09;;;;;;;49.47;15.60;;;;;;;;;;5057335;28;20030;-67
2023/10/03 09:43:35;;;;;;;46.72;13.43;;;;;;;;;;5065325;28;20025;-68
2023/10/03 09:46:01;;;;;;;48.65;15.05;;;;;;;;;;5052668;28;20031;-67
2023/10/03 09:48:26;;;;;;;43.00;15.75;;;;;;;;;;5074848;28;20035;-68
2023/10/03 09:50:53;;;;;;;47.95;13.85;;;;;;;;;;5074280;28;20021;-67
2023/10/03 09:53:19;;;;;;;42.45;15.00;;;;;;;;;;5074840;28;20099;-68
2023/10/03 09:55:46;;;;;;;53.45;15.45;;;;;;;;;;5075047;28;20102;-67
2023/10/03 09:58:13;;;;;;;38.67;14.43;;;;;;;;;;5074298;28;20016;-67
2023/10/03 10:00:39;;;;;;;15.23;4.90;;;;;;;;;;5047913;28;20072;-67
2023/10/03 10:03:19;;;;;;;7.72;2.55;;;;;;;;;;5053511;28;20101;-67
2023/10/03 10:06:12;;;;;;;4.43;2.00;;;;;;;;;;5057287;28;20020;-70
2023/10/03 10:08:46;;;;;;;4.47;1.10;;;;;;;;;;5024673;28;20512;-70
2023/10/03 10:11:12;;;;;;;6.57;1.70;;;;;;;;;;5051025;28;20039;-70
2023/10/03 10:13:41;;;;;;;6.10;2.58;;;;;;;;;;5020373;28;20024;-70
2023/10/03 10:16:20;;;;;;;7.07;1.75;;;;;;;;;;5036468;28;20021;-70
2023/10/03 10:18:45;;;;;;;3.22;1.55;;;;;;;;;;5050233;28;20486;-70
2023/10/03 10:21:24;;;;;;;17.20;2.13;;;;;;;;;;5074343;28;20039;-70
2023/10/03 10:24:15;;;;;;;3.90;1.77;;;;;;;;;;5051485;28;20043;-70
2023/10/03 10:26:41;;;;;;;5.05;1.73;;;;;;;;;;5052484;28;20029;-70
2023/10/03 10:29:11;;;;;;;4.18;1.45;;;;;;;;;;5019408;28;20032;-69
2023/10/03 10:31:44;;;;;;;6.20;1.67;;;;;;;;;;5041283;28;20032;-70
2023/10/03 10:34:22;;;;;;;4.80;1.40;;;;;;;;;;5017173;28;20091;-70
2023/10/03 10:37:01;;;;;;;3.20;1.33;;;;;;;;;;5052379;28;20025;-70
2023/10/03 10:40:09;;;;;;;6.05;1.73;;;;;;;;;;5054772;28;20028;-70
2023/10/03 10:42:59;;;;;;;6.30;2.15;;;;;;;;;;5053917;28;20016;-70
2023/10/03 10:45:25;;;;;;;6.60;1.20;;;;;;;;;;5022864;28;20399;-70
2023/10/03 10:47:51;;;;;;;5.63;1.48;;;;;;;;;;5032329;28;20029;-70
2023/10/03 10:50:25;;;;;;;4.10;1.60;;;;;;;;;;5020821;28;20068;-70
2023/10/03 10:52:56;;;;;;;6.05;1.42;;;;;;;;;;5046017;28;20029;-69
2023/10/03 10:55:25;;;;;;;2.53;1.45;;;;;;;;;;5061265;28;20031;-69
2023/10/03 10:58:08;;;;;;;8.57;1.90;;;;;;;;;;5054122;28;20478;-70
2023/10/03 11:00:34;;;;;;;5.18;1.02;;;;;;;;;;5035924;28;20375;-70
2023/10/03 11:03:02;;;;;;;4.65;1.48;;;;;;;;;;5036250;28;20021;-70
2023/10/03 11:05:48;;;;;;;5.05;1.58;;;;;;;;;;5031768;28;20036;-70
2023/10/03 11:08:14;;;;;;;3.58;1.45;;;;;;;;;;5015877;28;20445;-70
2023/10/03 11:10:55;;;;;;;4.13;1.70;;;;;;;;;;5041534;28;20025;-70
2023/10/03 11:13:21;;;;;;;3.30;1.30;;;;;;;;;;5036500;28;20113;-70
2023/10/03 11:15:48;;;;;;;6.80;2.25;;;;;;;;;;5035742;28;20021;-70
2023/10/03 11:18:14;;;;;;;3.70;1.50;;;;;;;;;;5069675;28;20021;-70
2023/10/03 11:20:40;;;;;;;3.38;1.45;;;;;;;;;;5016144;28;20029;-70
2023/10/03 11:23:14;;;;;;;3.47;1.00;;;;;;;;;;5021468;28;20398;-70
2023/10/03 11:25:46;;;;;;;3.80;1.40;;;;;;;;;;5052715;28;20016;-70
2023/10/03 11:28:15;;;;;;;7.85;1.80;;;;;;;;;;5053213;28;20036;-70
2023/10/03 11:30:40;;;;;;;7.38;2.03;;;;;;;;;;5038281;28;20029;-70
2023/10/03 11:33:06;;;;;;;5.13;1.50;;;;;;;;;;5034259;28;20024;-70
2023/10/03 11:35:31;;;;;;;8.82;2.40;;;;;;;;;;5039673;28;20450;-70
2023/10/03 11:38:05;;;;;;;10.05;2.25;;;;;;;;;;5015446;28;20021;-69
2023/10/03 11:40:31;;;;;;;6.57;1.88;;;;;;;;;;5016867;28;20021;-70
2023/10/03 11:43:01;;;;;;;6.85;2.42;;;;;;;;;;5052913;28;20108;-71
2023/10/03 11:45:30;;;;;;;8.70;1.90;;;;;;;;;;5052635;28;20025;-70
2023/10/03 11:47:59;;;;;;;4.10;1.80;;;;;;;;;;5035566;28;20016;-70
2023/10/03 11:50:27;;;;;;;4.70;1.60;;;;;;;;;;5052482;28;20036;-70
2023/10/03 11:52:56;;;;;;;3.30;1.63;;;;;;;;;;5036091;28;20417;-70
2023/10/03 11:55:21;;;;;;;2.83;1.80;;;;;;;;;;5045023;28;20033;-70
2023/10/03 11:57:47;;;;;;;2.95;1.45;;;;;;;;;;5032447;28;20171;-70
2023/10/03 12:00:16;;;;;;;4.43;1.75;;;;;;;;;;5024067;28;20463;-70
2023/10/03 12:02:45;;;;;;;2.65;1.25;;;;;;;;;;5032247;28;20052;-70
2023/10/03 12:05:12;;;;;;;2.95;1.08;;;;;;;;;;5018386;28;20495;-70
2023/10/03 12:07:39;;;;;;;8.60;1.20;;;;;;;;;;5035062;28;20410;-70
2023/10/03 12:10:10;;;;;;;11.00;1.70;;;;;;;;;;5034725;28;20394;-70
2023/10/03 12:12:35;;;;;;;;;;;;;;;;;;5048666;28;20020;-70
2023/10/03 12:15:00;;;;;;;6.93;1.87;;;;;;;;;;5072465;28;20366;-70
2023/10/03 12:17:25;;;;;;;5.78;2.13;;;;;;;;;;5047952;28;20029;-70
2023/10/03 12:19:53;;;;;;;4.93;1.98;;;;;;;;;;5031176;28;20033;-70
2023/10/03 12:22:18;;;;;;;2.70;1.40;;;;;;;;;;5032319;28;20021;-70
2023/10/03 12:24:43;;;;;;;6.88;1.90;;;;;;;;;;5040284;28;20030;-70
2023/10/03 12:27:09;;;;;;;5.18;1.80;;;;;;;;;;5032483;28;20021;-70
2023/10/03 12:29:34;;;;;;;4.50;2.25;;;;;;;;;;5033089;28;20017;-70
2023/10/03 12:32:01;;;;;;;6.35;1.75;;;;;;;;;;5014779;28;20475;-70
2023/10/03 12:34:27;;;;;;;5.60;2.53;;;;;;;;;;4997710;28;20028;-70
2023/10/03 12:36:53;;;;;;;6.10;1.80;;;;;;;;;;5055301;28;20104;-70
2023/10/03 12:39:20;;;;;;;4.43;1.67;;;;;;;;;;5054266;28;20165;-70
2023/10/03 12:41:46;;;;;;;5.60;1.75;;;;;;;;;;5071467;28;20024;-70
2023/10/03 12:44:12;;;;;;;5.38;2.33;;;;;;;;;;5072542;28;20085;-70
2023/10/03 12:46:39;;;;;;;4.80;1.42;;;;;;;;;;5054204;28;20368;-70
2023/10/03 12:49:06;;;;;;;6.50;1.85;;;;;;;;;;5054610;28;20036;-70
2023/10/03 12:51:32;;;;;;;6.50;1.75;;;;;;;;;;5054566;28;20032;-70
2023/10/03 12:53:58;;;;;;;6.38;2.05;;;;;;;;;;5048374;28;20029;-70
2023/10/03 12:56:23;;;;;;;5.50;1.65;;;;;;;;;;5032341;28;20372;-70
2023/10/03 12:58:48;;;;;;;6.13;2.15;;;;;;;;;;5041672;28;20024;-70
2023/10/03 13:01:14;;;;;;;7.53;1.70;;;;;;;;;;5034739;28;20029;-70
2023/10/03 13:03:39;;;;;;;5.57;2.63;;;;;;;;;;5036244;28;20028;-70
2023/10/03 13:06:05;;;;;;;6.40;2.22;;;;;;;;;;5035238;28;20030;-70
2023/10/03 13:08:30;;;;;;;8.68;2.90;;;;;;;;;;5034885;28;20032;-70
2023/10/03 13:11:01;;;;;;;7.80;2.85;;;;;;;;;;5023865;28;20041;-69
2023/10/03 13:13:27;;;;;;;14.70;2.05;;;;;;;;;;5002734;28;20391;-70
2023/10/03 13:15:54;;;;;;;9.23;2.60;;;;;;;;;;5042234;28;20026;-70
2023/10/03 13:18:21;;;;;;;5.68;2.22;;;;;;;;;;5075870;28;20425;-70
2023/10/03 13:20:46;;;;;;;9.80;3.67;;;;;;;;;;5057867;28;20024;-70
2023/10/03 13:23:12;;;;;;;6.15;3.92;;;;;;;;;;5075508;28;20040;-70
2023/10/03 13:25:40;;;;;;;6.30;2.67;;;;;;;;;;5057474;28;20056;-70
2023/10/03 13:28:10;;;;;;;11.63;2.85;;;;;;;;;;5075640;28;20048;-70
2023/10/03 13:30:36;;;;;;;5.90;2.50;;;;;;;;;;5041975;28;20027;-70
2023/10/03 13:33:01;;;;;;;15.25;2.85;;;;;;;;;;5062371;28;20052;-69
2023/10/03 13:35:27;;;;;;;12.63;2.50;;;;;;;;;;5075497;28;20028;-70
2023/10/03 13:37:54;;;;;;;6.85;2.35;;;;;;;;;;5058072;28;20032;-69
2023/10/03 13:40:21;;;;;;;11.55;2.70;;;;;;;;;;5060594;28;20055;-70
2023/10/03 13:42:48;;;;;;;11.38;3.25;;;;;;;;;;5075393;28;20111;-70
2023/10/03 13:45:14;;;;;;;5.88;2.35;;;;;;;;;;5075163;28;20082;-69
2023/10/03 13:47:41;;;;;;;12.38;3.00;;;;;;;;;;5057749;28;20414;-69
2023/10/03 13:50:09;;;;;;;8.60;2.17;;;;;;;;;;5057260;28;20453;-69
2023/10/03 13:52:37;;;;;;;6.18;2.83;;;;;;;;;;5040341;28;20017;-69
2023/10/03 13:55:06;;;;;;;9.27;3.03;;;;;;;;;;5035485;28;20104;-67
2023/10/03 13:57:32;;;;;;;10.63;2.90;;;;;;;;;;5035800;28;20029;-67
2023/10/03 13:59:57;;;;;;;6.53;2.47;;;;;;;;;;5055833;28;20163;-67
2023/10/03 14:02:23;;;;;;;9.30;2.20;;;;;;;;;;5055010;28;20392;-67
2023/10/03 14:04:49;;;;;;;12.63;3.00;;;;;;;;;;5036135;28;20434;-67
2023/10/03 14:07:15;;;;;;;11.60;2.63;;;;;;;;;;5017673;28;20026;-68
2023/10/03 14:09:41;;;;;;;10.38;2.55;;;;;;;;;;5035852;28;20021;-70
2023/10/03 14:12:07;;;;;;;11.65;2.95;;;;;;;;;;5063121;28;20531;-72
2023/10/03 14:14:35;;;;;;;7.50;2.92;;;;;;;;;;5072744;22;20472;-71
2023/10/03 14:17:01;;;;;;;11.30;2.63;;;;;;;;;;5075708;28;20504;-70
2023/10/03 14:19:35;;;;;;;9.95;3.28;;;;;;;;;;5073657;28;20024;-70
2023/10/03 14:22:02;;;;;;;7.95;2.45;;;;;;;;;;5075503;28;20436;-70
2023/10/03 14:24:29;;;;;;;9.35;2.10;;;;;;;;;;5074517;28;20442;-71
2023/10/03 14:26:54;;;;;;;11.60;2.35;;;;;;;;;;5075544;28;20166;-70
2023/10/03 14:29:20;;;;;;;6.35;3.03;;;;;;;;;;5090453;28;20470;-70